Kaohsiung International Airport
RCKH : now visible

Airfield :











YOU CAN JOIN US ON...

 
LOGIN :

Register | Disclaimer

   EN    FR    IT 

 









Legend :    VFR   Marginal VFR   IFR   Intensive IFR   Very Intensive IFR
Visi :
Ceiling :
>= 8 km
>= 3000ft
5 to 8 km
1000 to 3000 ft
1500m to 5 km
500 to 1000 ft
800 to 1500m
200 to 500 ft
< 800m
< 200 ft
Symbols :   Thunderstorms  Fog  Heavy snow  Heavy precipitations  Wind > 20 kt






- Airport Elevation : 31 ft
- IATA code : KHH


RCKH - Kaohsiung International

CURRENT METAR :
  • 211300Z 34008KT 310V020 9999 FEW016 SCT200 23/18 Q1014 NOSIG RMK A2995

EXPIRED METARs :
  • 211230Z 36005KT 330V030 9000 FEW016 SCT220 23/18 Q1014 NOSIG RMK A2995
  • 211200Z 36007KT 320V040 9000 FEW016 SCT200 24/18 Q1014 NOSIG RMK A2995
  • 211130Z 35008KT 320V020 9999 FEW016 SCT200 24/18 Q1013 NOSIG RMK A2994
  • 211100Z 35007KT 310V030 9000 FEW016 SCT120 BKN200 25/18 Q1013 NOSIG RMK A2993
  • 211030Z 34008KT 310V010 9000 FEW016 SCT120 BKN200 25/19 Q1013 NOSIG RMK A2992

TAF TAF RCKH
Valid from the 21 at 12:00 until the 22 at 18:00 UTC


211100Z 2112/2218 35010KT 9000 FEW015 BKN032
TEMPO 2119/2201 5000 BR
TEMPO 2204/2210 30013KT
BECMG 2210/2212 01005KT



MET'MAP, your aeronautical weather chart ! - Copyright ORBIFLY December 2007 - Disclaimer

ORBIFLY MET'MAP TEAM :

Programming & Development : Alexandra Zaïnal
Concept & Development : Baudouin d'Aumeries
Co-Development & Prog : Marc-Olivier Méhu
Technical & hardware support : Manuel Goepfert

Contact : metmap@orbifly.com




SOURCES & CREDITS :

   NOAA       Earth
Advisory